Time;durP1;ratioP1;P1;durP2;ratioP2;P2;SDS_P1;SDS_P2;PMS_P1;PMS_P2;Temp;Humidity;BMP_temperature;BMP_pressure;BME280_temperature;BME280_humidity;BME280_pressure;Samples;Min_cycle;Max_cycle;Signal;HPM_P1;HPM_P2
2022/03/17 00:01:49;;;;;;;50.73;27.23;;;;;;;5.18;100.00;101192.75;5073747;28;20199;-73
2022/03/17 00:04:16;;;;;;;49.00;25.10;;;;;;;5.10;100.00;101170.88;5068496;28;20191;-73
2022/03/17 00:06:43;;;;;;;45.30;23.13;;;;;;;5.11;100.00;101210.31;5055109;28;20195;-73
2022/03/17 00:09:09;;;;;;;44.83;20.83;;;;;;;5.10;100.00;101224.00;5055262;28;20224;-73
2022/03/17 00:11:37;;;;;;;19.90;11.23;;;;;;;4.73;100.00;101228.78;5054068;28;20250;-72
2022/03/17 00:14:04;;;;;;;13.63;7.63;;;;;;;4.61;100.00;101238.34;5066797;28;20613;-72
2022/03/17 00:16:32;;;;;;;17.47;8.17;;;;;;;4.36;100.00;101211.25;5053594;28;20204;-73
2022/03/17 00:19:07;;;;;;;18.97;8.90;;;;;;;4.50;100.00;101242.88;5053763;28;20198;-73
2022/03/17 00:21:35;;;;;;;11.17;4.80;;;;;;;4.20;100.00;101234.28;5054416;28;20199;-72
2022/03/17 00:24:02;;;;;;;5.23;3.67;;;;;;;4.23;100.00;101236.13;5063322;28;20281;-73
2022/03/17 00:26:29;;;;;;;7.50;5.13;;;;;;;4.15;100.00;101238.25;5067253;28;20669;-72
2022/03/17 00:28:55;;;;;;;19.77;8.23;;;;;;;4.30;100.00;101239.16;5060298;28;20191;-73
2022/03/17 00:31:22;;;;;;;18.80;7.37;;;;;;;4.33;100.00;101236.75;5060338;28;20199;-72
2022/03/17 00:33:50;;;;;;;11.47;6.57;;;;;;;4.15;100.00;101217.72;5054723;28;20191;-72
2022/03/17 00:36:17;;;;;;;14.77;5.53;;;;;;;4.04;100.00;101239.28;5063858;28;20673;-73
2022/03/17 00:38:44;;;;;;;12.40;7.27;;;;;;;4.02;100.00;101242.56;5061721;28;20214;-72
2022/03/17 00:41:11;;;;;;;15.53;6.40;;;;;;;4.06;100.00;101241.97;5054229;28;20190;-72
2022/03/17 00:43:37;;;;;;;8.63;5.33;;;;;;;3.97;100.00;101250.00;5055705;28;20199;-74
2022/03/17 00:46:04;;;;;;;8.37;5.40;;;;;;;3.78;100.00;101244.56;5052401;28;20612;-72
2022/03/17 00:48:31;;;;;;;15.83;7.47;;;;;;;3.92;100.00;101247.13;5053475;28;20207;-72
2022/03/17 00:50:59;;;;;;;6.43;5.47;;;;;;;3.78;100.00;101244.56;5066731;28;20226;-73
2022/03/17 00:53:26;;;;;;;4.53;3.77;;;;;;;3.64;100.00;101245.41;5073263;28;20199;-73
2022/03/17 00:55:53;;;;;;;8.03;5.37;;;;;;;3.66;100.00;101247.28;5070949;28;20568;-72
2022/03/17 00:58:19;;;;;;;9.13;4.13;;;;;;;3.70;100.00;101250.91;5073106;28;20690;-72
2022/03/17 01:00:46;;;;;;;8.93;5.00;;;;;;;3.64;100.00;101250.53;5058013;28;20443;-73
2022/03/17 01:03:13;;;;;;;12.43;6.73;;;;;;;3.73;100.00;101248.53;5052717;28;20199;-72
2022/03/17 01:05:41;;;;;;;12.80;6.33;;;;;;;3.64;100.00;101246.28;5068362;28;20203;-72
2022/03/17 01:08:09;;;;;;;8.80;4.63;;;;;;;3.64;100.00;101230.88;5068979;28;20693;-73
2022/03/17 01:10:38;;;;;;;2.83;2.57;;;;;;;3.47;100.00;101250.38;5054178;28;20246;-72
2022/03/17 01:13:05;;;;;;;15.20;4.87;;;;;;;3.35;100.00;101256.44;5065410;28;20275;-72
2022/03/17 01:15:32;;;;;;;6.30;5.07;;;;;;;3.28;100.00;101232.06;5057127;28;20229;-72
2022/03/17 01:17:59;;;;;;;9.50;4.27;;;;;;;3.38;100.00;101256.63;5053661;28;20195;-73
2022/03/17 01:20:26;;;;;;;12.40;4.30;;;;;;;3.33;100.00;101275.94;5052750;28;20257;-72
2022/03/17 01:22:53;;;;;;;4.93;4.33;;;;;;;3.15;100.00;101232.09;5068173;28;20248;-72
2022/03/17 01:25:21;;;;;;;10.10;5.43;;;;;;;3.42;100.00;101279.94;5056058;28;20191;-72
2022/03/17 01:27:48;;;;;;;6.77;4.03;;;;;;;3.40;100.00;101280.66;5052688;28;20196;-72
2022/03/17 01:30:15;;;;;;;9.13;4.60;;;;;;;3.44;100.00;101282.63;5065841;28;20222;-72
2022/03/17 01:32:42;;;;;;;11.47;5.27;;;;;;;3.40;100.00;101296.03;5072461;28;20196;-72
2022/03/17 01:35:10;;;;;;;5.37;4.77;;;;;;;3.02;100.00;101250.06;5062515;28;20640;-73
2022/03/17 01:37:37;;;;;;;14.60;3.70;;;;;;;3.01;100.00;101273.91;5052944;28;20203;-72
2022/03/17 01:40:05;;;;;;;10.03;4.10;;;;;;;3.34;100.00;101311.03;5052195;28;20195;-72
2022/03/17 01:42:33;;;;;;;6.47;3.40;;;;;;;3.14;100.00;101309.75;5052358;28;20613;-73
2022/03/17 01:45:00;;;;;;;7.23;4.50;;;;;;;3.25;100.00;101315.56;5044027;28;20286;-73
2022/03/17 01:47:31;;;;;;;8.10;5.43;;;;;;;3.31;100.00;101314.31;5053869;28;20230;-73
2022/03/17 01:50:01;;;;;;;7.97;4.07;;;;;;;3.21;100.00;101311.91;5052979;28;20226;-72
2022/03/17 01:52:28;;;;;;;4.10;2.90;;;;;;;3.20;100.00;101319.53;5052014;28;20720;-72
2022/03/17 01:54:56;;;;;;;14.17;4.03;;;;;;;3.22;100.00;101318.84;5071344;28;20195;-72
2022/03/17 01:57:23;;;;;;;23.17;3.33;;;;;;;3.19;100.00;101330.56;5052767;28;20658;-73
2022/03/17 01:59:52;;;;;;;6.90;3.27;;;;;;;3.28;100.00;101331.16;5052348;28;20226;-72
2022/03/17 02:02:19;;;;;;;5.27;3.03;;;;;;;3.16;100.00;101327.81;5066418;28;20194;-72
2022/03/17 02:04:48;;;;;;;6.20;3.33;;;;;;;3.12;100.00;101339.53;5064658;28;20210;-73
2022/03/17 02:07:16;;;;;;;7.17;3.40;;;;;;;3.17;100.00;101348.41;5068383;28;20278;-72
2022/03/17 02:09:44;;;;;;;13.83;4.10;;;;;;;3.20;100.00;101338.34;5070292;28;20222;-72
2022/03/17 02:14:59;;;;;;;6.07;3.50;;;;;;;3.13;100.00;101340.44;5068849;28;20217;-72
2022/03/17 02:17:30;;;;;;;10.90;3.30;;;;;;;3.13;100.00;101356.69;5069722;28;20218;-72
2022/03/17 02:19:58;;;;;;;3.57;2.57;;;;;;;3.08;100.00;101360.63;5058756;28;20199;-72
2022/03/17 02:22:26;;;;;;;5.10;3.00;;;;;;;3.17;100.00;101368.91;5064344;28;20198;-72
2022/03/17 02:27:42;;;;;;;3.60;2.77;;;;;;;3.05;100.00;101368.09;5069953;28;20210;-72
2022/03/17 02:30:10;;;;;;;7.97;2.97;;;;;;;2.91;100.00;101351.84;5064714;28;20592;-73
2022/03/17 02:32:38;;;;;;;2.27;2.10;;;;;;;2.85;100.00;101373.59;5051817;28;20199;-72
2022/03/17 02:35:07;;;;;;;8.43;3.00;;;;;;;2.99;100.00;101363.50;5052270;28;20249;-73
2022/03/17 02:37:34;;;;;;;3.73;2.50;;;;;;;2.98;100.00;101369.38;5038874;28;20666;-72
2022/03/17 02:40:05;;;;;;;5.17;2.70;;;;;;;2.53;100.00;101321.94;5056040;28;20191;-73
2022/03/17 02:42:32;;;;;;;3.70;3.10;;;;;;;2.82;100.00;101388.75;5058269;28;20199;-72
2022/03/17 02:44:59;;;;;;;9.80;3.60;;;;;;;2.88;100.00;101394.28;5050503;28;20199;-74
2022/03/17 02:47:26;;;;;;;2.60;2.27;;;;;;;2.83;100.00;101405.91;5051084;28;20241;-72
2022/03/17 02:49:55;;;;;;;4.17;2.90;;;;;;;2.88;100.00;101404.53;5058703;28;20250;-72
2022/03/17 02:52:22;;;;;;;2.83;2.47;;;;;;;2.83;100.00;101396.53;5071286;28;20240;-72
2022/03/17 02:54:49;;;;;;;3.17;2.87;;;;;;;2.56;100.00;101360.53;5071326;28;20199;-72
2022/03/17 02:57:18;;;;;;;3.60;2.93;;;;;;;3.03;100.00;101426.06;5071003;28;20191;-72
2022/03/17 02:59:46;;;;;;;7.33;3.97;;;;;;;3.07;100.00;101430.56;5065386;28;20206;-72
2022/03/17 03:02:13;;;;;;;8.53;3.73;;;;;;;3.09;100.00;101425.56;5069638;28;20574;-72
2022/03/17 03:04:40;;;;;;;2.33;2.23;;;;;;;2.73;100.00;101414.66;5070932;28;20199;-72
2022/03/17 03:07:07;;;;;;;6.57;2.90;;;;;;;2.94;100.00;101438.25;5063270;28;20187;-72
2022/03/17 03:09:34;;;;;;;5.60;2.77;;;;;;;2.87;100.00;101441.19;5054559;28;20236;-72
2022/03/17 03:12:01;;;;;;;2.83;2.60;;;;;;;2.81;100.00;101458.69;5069334;28;20237;-72
2022/03/17 03:14:31;;;;;;;6.03;2.97;;;;;;;2.98;100.00;101447.91;5070742;28;20556;-73
2022/03/17 03:16:58;;;;;;;4.57;2.80;;;;;;;2.94;100.00;101451.03;5052237;28;20203;-72
2022/03/17 03:19:25;;;;;;;8.00;3.60;;;;;;;2.73;100.00;101424.00;5055630;28;20273;-72
2022/03/17 03:21:52;;;;;;;5.00;3.90;;;;;;;2.94;100.00;101451.94;5074822;28;20252;-72
2022/03/17 03:24:19;;;;;;;3.40;2.80;;;;;;;2.95;100.00;101460.53;5063002;28;20650;-73
2022/03/17 03:26:46;;;;;;;5.60;3.27;;;;;;;3.02;100.00;101454.13;5068171;28;20199;-72
2022/03/17 03:29:18;;;;;;;9.90;5.67;;;;;;;3.02;100.00;101459.25;5058263;28;20191;-72
2022/03/17 03:31:47;;;;;;;3.97;3.33;;;;;;;2.86;100.00;101462.44;5036283;28;20788;-72
2022/03/17 03:34:13;;;;;;;9.53;2.17;;;;;;;2.70;100.00;101464.75;5054699;28;20192;-73
2022/03/17 03:39:24;;;;;;;3.47;3.00;;;;;;;2.72;100.00;101469.19;5056544;28;20245;-72
2022/03/17 03:41:51;;;;;;;6.70;3.03;;;;;;;2.80;100.00;101482.53;5064777;28;20196;-72
2022/03/17 03:44:18;;;;;;;4.03;2.40;;;;;;;2.76;100.00;101483.09;5060128;28;20187;-72
2022/03/17 03:46:46;;;;;;;3.73;3.00;;;;;;;2.72;100.00;101475.97;5058303;28;20235;-72
2022/03/17 03:49:13;;;;;;;6.03;3.20;;;;;;;2.50;100.00;101446.34;5070619;28;20205;-73
2022/03/17 03:51:40;;;;;;;5.30;2.80;;;;;;;2.59;100.00;101483.63;5055229;28;20654;-72
2022/03/17 03:54:17;;;;;;;8.63;3.50;;;;;;;2.70;100.00;101490.38;5054639;28;20207;-72
2022/03/17 03:56:45;;;;;;;5.13;2.80;;;;;;;2.71;100.00;101492.16;5055825;28;20191;-72
2022/03/17 03:59:15;;;;;;;4.63;3.50;;;;;;;2.72;100.00;101488.78;5054279;28;20282;-73
2022/03/17 04:01:42;;;;;;;2.77;2.57;;;;;;;2.60;100.00;101481.19;5038804;28;20605;-73
2022/03/17 04:04:13;;;;;;;2.73;2.53;;;;;;;2.60;100.00;101493.97;5070007;28;20226;-74
2022/03/17 04:06:42;;;;;;;3.00;2.60;;;;;;;2.54;100.00;101483.28;5072302;28;20195;-72
2022/03/17 04:09:09;;;;;;;3.53;3.07;;;;;;;2.59;100.00;101493.84;5073958;28;20245;-71
2022/03/17 04:11:35;;;;;;;4.43;3.77;;;;;;;2.77;100.00;101497.69;5054317;28;20230;-72
2022/03/17 04:14:02;;;;;;;4.80;3.40;;;;;;;2.70;100.00;101503.16;5055130;28;20195;-72
2022/03/17 04:16:29;;;;;;;2.93;2.73;;;;;;;2.55;100.00;101514.91;5072611;28;20195;-72
2022/03/17 04:18:56;;;;;;;3.43;2.93;;;;;;;2.42;100.00;101519.19;5045462;28;20762;-71
2022/03/17 04:21:24;;;;;;;10.97;6.10;;;;;;;3.08;100.00;101506.66;5057410;28;20195;-71
2022/03/17 04:23:51;;;;;;;5.67;4.10;;;;;;;2.58;100.00;101520.22;5059531;28;20226;-70
2022/03/17 04:26:18;;;;;;;9.83;4.80;;;;;;;2.59;100.00;101532.25;5071526;28;20727;-70
2022/03/17 04:28:44;;;;;;;6.03;2.70;;;;;;;2.35;100.00;101511.88;5065805;28;20202;-72
2022/03/17 04:31:12;;;;;;;4.37;3.00;;;;;;;2.32;100.00;101510.75;5049145;28;20222;-71
2022/03/17 04:33:39;;;;;;;4.87;3.33;;;;;;;2.41;100.00;101527.63;5069276;28;20198;-72
2022/03/17 04:36:07;;;;;;;5.17;3.37;;;;;;;2.46;100.00;101525.41;5073287;28;20213;-71
2022/03/17 04:38:35;;;;;;;6.73;3.67;;;;;;;2.37;100.00;101532.41;5054621;28;20199;-72
2022/03/17 04:41:02;;;;;;;4.67;3.37;;;;;;;2.32;100.00;101529.53;5055199;28;20210;-71
2022/03/17 04:43:29;;;;;;;8.20;3.53;;;;;;;2.29;100.00;101537.00;5052827;28;20691;-72
2022/03/17 04:45:56;;;;;;;10.63;4.00;;;;;;;2.21;100.00;101527.88;5053444;28;20224;-72
2022/03/17 04:48:22;;;;;;;6.70;3.73;;;;;;;2.15;100.00;101522.34;5053573;28;20196;-72
2022/03/17 04:50:49;;;;;;;3.47;3.03;;;;;;;2.19;100.00;101542.25;5067937;28;20223;-73
2022/03/17 04:53:27;;;;;;;10.80;4.80;;;;;;;2.30;100.00;101525.09;5062295;28;20184;-71
2022/03/17 04:55:56;;;;;;;7.60;4.07;;;;;;;2.46;100.00;101549.31;5052955;28;20214;-72
2022/03/17 04:58:23;;;;;;;7.73;4.83;;;;;;;2.36;100.00;101554.56;5065701;28;20198;-72
2022/03/17 05:00:51;;;;;;;5.37;4.00;;;;;;;2.54;100.00;101567.78;5063806;28;20350;-71
2022/03/17 05:03:18;;;;;;;3.50;2.70;;;;;;;2.34;100.00;101568.03;5056064;28;20198;-72
2022/03/17 05:05:44;;;;;;;5.60;3.60;;;;;;;2.42;100.00;101567.81;5061412;28;20195;-72
2022/03/17 05:08:11;;;;;;;6.90;3.23;;;;;;;2.38;100.00;101573.50;5073123;28;20283;-73
2022/03/17 05:10:38;;;;;;;8.53;4.43;;;;;;;2.39;100.00;101577.81;5070525;28;20210;-73
2022/03/17 05:13:07;;;;;;;7.57;3.47;;;;;;;2.41;100.00;101578.81;5057572;28;20670;-72
2022/03/17 05:15:35;;;;;;;6.77;3.77;;;;;;;2.55;100.00;101584.03;5056822;28;20222;-71
2022/03/17 05:18:02;;;;;;;3.30;2.97;;;;;;;2.37;100.00;101579.38;5061257;28;20564;-72
2022/03/17 05:20:30;;;;;;;3.90;2.20;;;;;;;2.36;100.00;101590.41;5062174;28;20199;-71
2022/03/17 05:22:57;;;;;;;6.67;3.93;;;;;;;2.41;100.00;101583.94;5055211;28;20192;-72
2022/03/17 05:25:24;;;;;;;9.90;4.00;;;;;;;2.52;100.00;101597.50;5052960;28;20206;-71
2022/03/17 05:27:51;;;;;;;5.10;3.83;;;;;;;2.33;100.00;101581.59;5053420;28;20681;-71
2022/03/17 05:30:20;;;;;;;5.30;4.20;;;;;;;2.61;100.00;101610.94;5053018;28;20195;-71
2022/03/17 05:32:48;;;;;;;5.93;4.20;;;;;;;2.74;100.00;101607.59;5059749;28;20280;-71
2022/03/17 05:35:17;;;;;;;6.87;3.23;;;;;;;2.71;100.00;101610.81;5070348;28;20194;-72
2022/03/17 05:37:45;;;;;;;10.00;4.60;;;;;;;2.99;100.00;101618.78;5055481;28;20207;-74
2022/03/17 05:40:15;;;;;;;6.10;3.67;;;;;;;3.00;100.00;101625.66;5072274;28;20186;-72
2022/03/17 05:42:43;;;;;;;8.10;5.43;;;;;;;2.74;100.00;101620.41;5071245;28;20233;-74
2022/03/17 05:45:10;;;;;;;9.40;4.97;;;;;;;3.08;100.00;101633.88;5048049;28;20296;-73
2022/03/17 05:47:40;;;;;;;5.60;3.67;;;;;;;3.13;100.00;101636.00;5052524;28;20222;-73
2022/03/17 05:50:10;;;;;;;6.87;3.83;;;;;;;3.21;100.00;101632.25;5038252;28;20198;-73
2022/03/17 05:52:38;;;;;;;12.87;6.07;;;;;;;3.19;100.00;101644.09;5053292;28;20227;-73
2022/03/17 05:55:06;;;;;;;10.13;5.40;;;;;;;3.17;100.00;101650.81;5059256;28;20195;-73
2022/03/17 05:57:34;;;;;;;9.00;5.07;;;;;;;3.28;100.00;101659.22;5055452;28;20291;-74
2022/03/17 06:00:01;;;;;;;3.30;2.53;;;;;;;3.09;100.00;101662.19;5070824;28;20260;-73
2022/03/17 06:02:28;;;;;;;8.60;4.23;;;;;;;2.89;100.00;101662.47;5069901;28;20265;-73
2022/03/17 06:04:56;;;;;;;3.73;3.30;;;;;;;2.90;100.00;101669.34;5072066;28;20191;-73
2022/03/17 06:07:23;;;;;;;7.00;4.17;;;;;;;2.92;100.00;101667.81;5071593;28;20207;-73
2022/03/17 06:09:49;;;;;;;11.83;4.73;;;;;;;2.87;100.00;101669.13;5054245;28;20690;-73
2022/03/17 06:12:16;;;;;;;6.70;4.37;;;;;;;2.97;100.00;101676.69;5052697;28;20662;-73
2022/03/17 06:14:43;;;;;;;7.10;4.60;;;;;;;2.66;100.00;101626.63;5058891;28;20206;-74
2022/03/17 06:17:12;;;;;;;8.30;4.70;;;;;;;3.20;100.00;101684.31;5062022;28;20198;-73
2022/03/17 06:19:40;;;;;;;9.50;4.97;;;;;;;3.34;100.00;101700.66;5052923;28;20195;-74
2022/03/17 06:22:08;;;;;;;10.27;5.60;;;;;;;3.27;100.00;101668.59;5051719;28;20688;-73
2022/03/17 06:24:35;;;;;;;4.67;3.77;;;;;;;3.27;100.00;101699.34;5059698;28;20199;-75
2022/03/17 06:27:02;;;;;;;5.87;4.23;;;;;;;2.99;100.00;101700.75;5071608;28;20611;-74
2022/03/17 06:29:28;;;;;;;10.30;4.23;;;;;;;3.21;100.00;101698.03;5050278;28;20298;-72
2022/03/17 06:31:56;;;;;;;8.27;4.93;;;;;;;3.45;100.00;101710.88;5051267;28;20234;-72
2022/03/17 06:34:23;;;;;;;10.33;4.87;;;;;;;3.47;100.00;101714.44;5057662;28;20191;-73
2022/03/17 06:36:50;;;;;;;7.10;3.40;;;;;;;3.47;100.00;101734.03;5068984;28;20687;-74
2022/03/17 06:39:18;;;;;;;14.13;7.50;;;;;;;3.63;100.00;101731.78;5070631;28;20190;-73
2022/03/17 06:41:45;;;;;;;12.27;5.57;;;;;;;3.35;100.00;101726.38;5051275;28;20204;-73
2022/03/17 06:44:12;;;;;;;18.73;4.30;;;;;;;3.31;100.00;101731.22;5061033;28;20286;-73
2022/03/17 06:46:38;;;;;;;4.83;3.70;;;;;;;3.36;100.00;101729.84;5070377;28;20249;-73
2022/03/17 06:49:05;;;;;;;7.40;3.13;;;;;;;2.91;100.00;101689.06;5071633;28;20245;-73
2022/03/17 06:51:32;;;;;;;5.93;3.73;;;;;;;2.96;100.00;101739.84;5071551;28;20233;-73
2022/03/17 06:53:59;;;;;;;10.00;3.73;;;;;;;3.13;100.00;101735.03;5076984;28;20191;-72
2022/03/17 06:56:27;;;;;;;4.33;2.93;;;;;;;3.28;100.00;101744.69;5078048;28;20201;-72
2022/03/17 06:58:53;;;;;;;2.93;2.70;;;;;;;3.28;100.00;101726.72;5078405;28;20203;-73
2022/03/17 07:01:20;;;;;;;8.70;3.60;;;;;;;3.23;100.00;101733.22;5078039;28;20194;-72
2022/03/17 07:03:47;;;;;;;6.67;3.70;;;;;;;3.36;100.00;101733.28;5077697;28;20243;-73
2022/03/17 07:06:14;;;;;;;5.90;3.83;;;;;;;3.32;100.00;101705.66;5077783;28;20202;-72
2022/03/17 07:08:40;;;;;;;6.57;3.80;;;;;;;3.49;100.00;101733.38;5077793;28;20210;-73
2022/03/17 07:11:07;;;;;;;3.73;2.83;;;;;;;3.28;100.00;101706.22;5077938;28;20194;-73
2022/03/17 07:13:35;;;;;;;5.83;3.47;;;;;;;3.56;100.00;101738.94;5078115;28;20202;-73
2022/03/17 07:16:02;;;;;;;3.07;2.43;;;;;;;3.49;100.00;101735.97;5076807;28;20191;-74
2022/03/17 07:18:29;;;;;;;9.97;3.73;;;;;;;3.68;100.00;101734.63;5078062;28;20194;-73
2022/03/17 07:20:59;;;;;;;7.00;4.70;;;;;;;3.75;100.00;101752.22;5077747;28;20285;-73
2022/03/17 07:23:25;;;;;;;7.53;3.60;;;;;;;3.85;100.00;101752.09;5078150;28;20296;-73
2022/03/17 07:25:52;;;;;;;5.60;3.13;;;;;;;3.92;100.00;101762.00;5077835;28;20195;-73
2022/03/17 07:28:20;;;;;;;7.80;3.97;;;;;;;3.64;100.00;101759.19;5077795;28;20252;-73
2022/03/17 07:30:49;;;;;;;7.20;3.07;;;;;;;3.95;100.00;101751.94;5077776;28;20256;-74
2022/03/17 07:33:16;;;;;;;6.60;3.20;;;;;;;3.45;100.00;101764.72;5077427;28;20226;-74
2022/03/17 07:35:43;;;;;;;8.63;4.17;;;;;;;3.56;100.00;101765.47;5077954;28;20195;-73
2022/03/17 07:38:10;;;;;;;8.53;4.90;;;;;;;3.50;100.00;101765.03;5077882;28;20195;-73
2022/03/17 07:40:37;;;;;;;3.70;2.87;;;;;;;3.32;100.00;101764.63;5077889;28;20191;-74
2022/03/17 07:43:03;;;;;;;8.40;4.53;;;;;;;3.26;100.00;101763.31;5077900;28;20597;-75
2022/03/17 07:45:31;;;;;;;9.83;5.87;;;;;;;3.41;100.00;101765.28;5076547;28;20233;-74
2022/03/17 07:47:59;;;;;;;4.50;2.87;;;;;;;3.38;100.00;101770.22;5077605;28;20244;-75
2022/03/17 07:50:26;;;;;;;3.33;3.13;;;;;;;3.08;100.00;101772.25;5077561;28;20195;-74
2022/03/17 07:52:53;;;;;;;5.03;4.33;;;;;;;3.03;100.00;101773.59;5077827;28;20237;-76
2022/03/17 07:55:20;;;;;;;6.13;3.33;;;;;;;2.95;100.00;101767.94;5077655;28;20195;-73
2022/03/17 07:57:47;;;;;;;3.00;2.80;;;;;;;2.79;100.00;101768.47;5077936;28;20202;-72
2022/03/17 08:00:14;;;;;;;5.93;3.97;;;;;;;2.78;100.00;101768.38;5077727;28;20202;-72
2022/03/17 08:02:41;;;;;;;6.30;4.17;;;;;;;2.75;100.00;101773.25;5077477;28;20202;-70
2022/03/17 08:05:10;;;;;;;4.27;3.50;;;;;;;2.72;100.00;101765.34;5074635;28;20233;-72
2022/03/17 08:07:37;;;;;;;15.70;4.10;;;;;;;2.52;100.00;101761.34;5074410;28;20240;-73
2022/03/17 08:10:05;;;;;;;11.00;6.33;;;;;;;2.75;100.00;101773.25;5074021;28;20591;-73
2022/03/17 08:12:33;;;;;;;3.67;3.37;;;;;;;2.34;100.00;101760.88;5074000;28;20230;-73
2022/03/17 08:15:01;;;;;;;6.73;4.87;;;;;;;2.45;100.00;101775.38;5073534;28;20214;-72
2022/03/17 08:17:28;;;;;;;13.13;5.97;;;;;;;2.59;100.00;101773.81;5073874;28;20240;-71
2022/03/17 08:19:56;;;;;;;7.20;4.60;;;;;;;2.33;100.00;101773.53;5074154;28;20203;-72
2022/03/17 08:22:25;;;;;;;5.63;4.40;;;;;;;2.50;100.00;101779.13;5074061;28;20198;-72
2022/03/17 08:24:52;;;;;;;6.10;5.40;;;;;;;2.54;100.00;101784.47;5073808;28;20192;-72
2022/03/17 08:27:19;;;;;;;6.53;4.37;;;;;;;2.56;100.00;101788.06;5073744;28;20202;-73
2022/03/17 08:29:48;;;;;;;6.40;5.13;;;;;;;2.66;100.00;101793.09;5073731;28;20202;-71
2022/03/17 08:32:15;;;;;;;10.70;6.13;;;;;;;2.71;100.00;101781.53;5073951;28;20222;-72
2022/03/17 08:34:42;;;;;;;8.83;4.23;;;;;;;2.56;100.00;101788.06;5073953;28;20206;-72
2022/03/17 08:37:09;;;;;;;10.80;6.60;;;;;;;2.88;100.00;101784.53;5073882;28;20195;-72
2022/03/17 08:39:37;;;;;;;9.53;3.53;;;;;;;2.78;100.00;101797.41;5073912;28;20190;-71
2022/03/17 08:42:05;;;;;;;7.40;4.37;;;;;;;2.72;100.00;101781.59;5073610;28;20670;-73
2022/03/17 08:44:31;;;;;;;8.17;4.97;;;;;;;2.89;100.00;101800.78;5073658;28;20252;-72
2022/03/17 08:49:42;;;;;;;12.43;6.90;;;;;;;2.96;100.00;101795.34;5073521;28;20272;-72
2022/03/17 08:52:09;;;;;;;10.80;6.73;;;;;;;3.08;100.00;101782.50;5073221;28;20226;-73
2022/03/17 08:54:38;;;;;;;17.13;8.13;;;;;;;3.48;100.00;101805.97;5073548;28;20256;-72
2022/03/17 08:57:05;;;;;;;5.87;4.60;;;;;;;3.24;100.00;101814.47;5072993;28;20191;-75
2022/03/17 08:59:34;;;;;;;18.30;6.77;;;;;;;3.44;100.00;101811.66;5073361;28;20206;-72
2022/03/17 09:02:03;;;;;;;14.70;7.67;;;;;;;3.52;100.00;101808.75;5073121;28;20205;-72
2022/03/17 09:04:30;;;;;;;14.23;7.70;;;;;;;3.81;100.00;101803.97;5073225;28;20665;-73
2022/03/17 09:06:59;;;;;;;4.90;4.40;;;;;;;3.77;100.00;101809.66;5073257;28;20225;-71
2022/03/17 09:09:26;;;;;;;9.00;5.43;;;;;;;3.92;100.00;101803.91;5073006;28;20199;-72
2022/03/17 09:11:54;;;;;;;12.00;5.63;;;;;;;4.34;100.00;101805.97;5072825;28;20218;-72
2022/03/17 09:14:21;;;;;;;10.83;6.63;;;;;;;4.53;100.00;101802.91;5073078;28;20202;-72
2022/03/17 09:16:48;;;;;;;12.13;6.83;;;;;;;4.55;100.00;101797.91;5071104;28;20203;-73
2022/03/17 09:19:17;;;;;;;18.13;8.33;;;;;;;5.21;100.00;101809.13;5072621;28;20202;-72
2022/03/17 09:21:43;;;;;;;19.17;10.77;;;;;;;5.73;100.00;101813.28;5072833;28;20206;-72
2022/03/17 09:24:10;;;;;;;9.80;6.20;;;;;;;5.21;100.00;101833.13;5072594;28;20673;-73
2022/03/17 09:26:37;;;;;;;9.07;5.30;;;;;;;5.13;100.00;101811.19;5072654;28;20665;-73
2022/03/17 09:29:05;;;;;;;9.90;4.00;;;;;;;4.99;100.00;101828.28;5072596;28;20621;-73
2022/03/17 09:31:32;;;;;;;8.97;5.53;;;;;;;5.53;100.00;101834.31;5072926;28;20652;-73
2022/03/17 09:33:59;;;;;;;14.03;6.53;;;;;;;5.26;100.00;101782.91;5072359;28;20712;-72
2022/03/17 09:36:26;;;;;;;8.27;3.93;;;;;;;5.29;100.00;101839.66;5072880;28;20203;-73
2022/03/17 09:41:35;;;;;;;7.87;4.50;;;;;;;5.42;100.00;101841.34;5071953;28;20281;-72
2022/03/17 09:44:03;;;;;;;7.53;4.87;;;;;;;5.88;100.00;101840.91;5072246;28;20625;-74
2022/03/17 09:46:32;;;;;;;13.13;5.67;;;;;;;6.26;100.00;101844.91;5071286;28;20226;-73
2022/03/17 09:49:01;;;;;;;9.83;5.63;;;;;;;5.90;100.00;101840.97;5072545;28;20230;-73
2022/03/17 09:51:29;;;;;;;5.80;3.30;;;;;;;5.77;100.00;101846.13;5072108;28;20230;-73
2022/03/17 09:54:00;;;;;;;9.43;4.93;;;;;;;5.76;100.00;101808.31;5072064;28;20226;-73
2022/03/17 09:56:28;;;;;;;7.27;4.17;;;;;;;5.73;100.00;101849.31;5072394;28;20195;-73
2022/03/17 09:58:56;;;;;;;5.63;4.23;;;;;;;5.83;100.00;101851.66;5072159;28;20267;-74
2022/03/17 10:01:25;;;;;;;11.77;5.07;;;;;;;5.91;100.00;101853.06;5072192;28;20276;-72
2022/03/17 10:03:58;;;;;;;9.03;5.27;;;;;;;6.52;100.00;101854.19;5072288;28;20198;-73
2022/03/17 10:06:25;;;;;;;4.27;3.53;;;;;;;5.86;100.00;101820.97;5072483;28;20199;-73
2022/03/17 10:08:52;;;;;;;9.70;4.87;;;;;;;6.23;100.00;101861.06;5071928;28;20661;-72
2022/03/17 10:11:26;;;;;;;12.50;3.13;;;;;;;6.51;100.00;101865.28;5071485;28;20673;-73
2022/03/17 10:13:54;;;;;;;12.23;5.93;;;;;;;6.61;100.00;101859.88;5071981;28;20258;-73
2022/03/17 10:16:22;;;;;;;6.93;4.37;;;;;;;6.84;99.77;101849.25;5071133;28;20191;-73
2022/03/17 10:18:58;;;;;;;9.90;5.70;;;;;;;6.75;97.24;101844.44;5071950;28;20214;-73
2022/03/17 10:21:26;;;;;;;3.50;2.97;;;;;;;6.70;95.44;101848.44;5071498;28;20198;-74
2022/03/17 10:23:55;;;;;;;4.20;3.03;;;;;;;6.37;94.02;101862.78;5071764;28;20198;-74
2022/03/17 10:26:41;;;;;;;8.00;4.30;;;;;;;6.68;95.92;101851.72;5071993;28;20260;-73
2022/03/17 10:29:11;;;;;;;5.53;3.53;;;;;;;7.07;93.24;101843.72;5070496;28;20198;-74
2022/03/17 10:31:59;;;;;;;1.83;1.73;;;;;;;6.42;85.75;101796.09;5071791;28;20191;-74
2022/03/17 10:34:30;;;;;;;5.07;3.00;;;;;;;7.02;88.52;101844.25;5071822;28;20203;-74
2022/03/17 10:37:08;;;;;;;4.07;3.37;;;;;;;6.83;83.72;101835.47;5071880;28;20198;-74
2022/03/17 10:39:42;;;;;;;3.33;2.67;;;;;;;7.03;82.26;101836.59;5071742;28;20289;-74
2022/03/17 10:42:14;;;;;;;2.93;2.00;;;;;;;6.66;81.80;101805.25;5071664;28;20202;-75
2022/03/17 10:44:42;;;;;;;3.83;2.87;;;;;;;6.94;80.23;101815.44;5071179;28;20198;-75
2022/03/17 10:47:10;;;;;;;6.70;3.10;;;;;;;7.06;78.89;101828.16;5070354;28;20593;-74
2022/03/17 10:49:38;;;;;;;8.17;4.37;;;;;;;7.56;73.08;101831.00;5071686;28;20276;-75
2022/03/17 10:52:05;;;;;;;7.37;2.53;;;;;;;7.30;65.68;101827.84;5071721;28;20199;-74
2022/03/17 10:54:33;;;;;;;3.70;2.30;;;;;;;7.41;66.76;101810.38;5071180;28;20190;-73
2022/03/17 10:57:04;;;;;;;2.30;2.07;;;;;;;7.32;64.02;101831.38;5071155;28;20229;-74
2022/03/17 10:59:38;;;;;;;6.10;3.40;;;;;;;7.84;65.38;101834.25;5071657;28;20640;-74
2022/03/17 11:02:07;;;;;;;3.50;3.00;;;;;;;7.92;62.09;101830.38;5071495;28;20700;-75
2022/03/17 11:04:36;;;;;;;2.30;2.20;;;;;;;8.00;61.34;101831.69;5071530;28;20256;-73
2022/03/17 11:07:06;;;;;;;4.37;2.83;;;;;;;7.94;60.18;101833.94;5071276;28;20622;-75
2022/03/17 11:09:34;;;;;;;4.20;2.77;;;;;;;7.67;59.85;101827.31;5071389;28;20218;-74
2022/03/17 11:12:02;;;;;;;1.70;1.60;;;;;;;7.46;59.23;101821.81;5071469;28;20641;-73
2022/03/17 11:14:29;;;;;;;3.43;2.63;;;;;;;7.39;58.82;101825.75;5070904;28;20723;-75
2022/03/17 11:16:59;;;;;;;16.07;2.57;;;;;;;7.35;60.23;101822.94;5070723;28;20190;-75
2022/03/17 11:19:27;;;;;;;8.23;3.60;;;;;;;8.02;59.15;101834.34;5070868;28;20191;-73
2022/03/17 11:22:08;;;;;;;6.03;2.80;;;;;;;7.82;57.19;101835.84;5071010;28;20669;-73
2022/03/17 11:24:35;;;;;;;14.87;2.00;;;;;;;7.79;55.27;101834.00;5071032;28;20206;-73
2022/03/17 11:27:10;;;;;;;2.33;1.73;;;;;;;7.49;56.05;101825.47;5070213;28;20195;-73
2022/03/17 11:29:41;;;;;;;3.10;2.83;;;;;;;7.67;56.79;101814.41;5070160;28;20271;-74
2022/03/17 11:32:24;;;;;;;4.67;2.13;;;;;;;7.32;57.51;101833.97;5071275;28;20277;-72
2022/03/17 11:34:51;;;;;;;14.33;4.37;;;;;;;7.71;55.74;101830.13;5071288;28;20248;-74
2022/03/17 11:37:30;;;;;;;5.93;2.90;;;;;;;7.65;57.39;101831.47;5071341;28;20195;-73
2022/03/17 11:39:58;;;;;;;3.77;2.43;;;;;;;7.16;55.43;101782.34;5072602;28;20191;-74
2022/03/17 11:42:34;;;;;;;3.00;2.80;;;;;;;7.25;55.84;101838.69;5074704;28;20685;-74